sensor_id;sensor_type;location;lat;lon;timestamp;pressure;altitude;pressure_sealevel;temperature;humidity
37066;BME280;22981;43.080;25.550;2023-02-20T00:00:07;99690.80;;;12.20;51.86
37066;BME280;22981;43.080;25.550;2023-02-20T00:02:33;99695.34;;;12.19;51.88
37066;BME280;22981;43.080;25.550;2023-02-20T00:05:00;99698.27;;;12.18;51.91
37066;BME280;22981;43.080;25.550;2023-02-20T00:07:27;99695.50;;;12.15;51.89
37066;BME280;22981;43.080;25.550;2023-02-20T00:09:54;99700.28;;;12.13;51.92
37066;BME280;22981;43.080;25.550;2023-02-20T00:12:21;99704.45;;;12.09;51.95
37066;BME280;22981;43.080;25.550;2023-02-20T00:14:47;99705.19;;;12.07;51.97
37066;BME280;22981;43.080;25.550;2023-02-20T00:17:14;99709.16;;;12.05;51.92
37066;BME280;22981;43.080;25.550;2023-02-20T00:19:41;99706.18;;;12.03;51.84
37066;BME280;22981;43.080;25.550;2023-02-20T00:22:08;99708.02;;;12.03;51.81
37066;BME280;22981;43.080;25.550;2023-02-20T00:24:34;99706.38;;;12.02;51.78
37066;BME280;22981;43.080;25.550;2023-02-20T00:27:01;99701.02;;;12.02;51.79
37066;BME280;22981;43.080;25.550;2023-02-20T00:29:28;99703.93;;;12.00;51.78
37066;BME280;22981;43.080;25.550;2023-02-20T00:31:55;99698.77;;;11.99;51.83
37066;BME280;22981;43.080;25.550;2023-02-20T00:34:23;99700.34;;;11.97;51.80
37066;BME280;22981;43.080;25.550;2023-02-20T00:36:50;99694.16;;;11.97;51.79
37066;BME280;22981;43.080;25.550;2023-02-20T00:39:17;99696.03;;;11.96;51.81
37066;BME280;22981;43.080;25.550;2023-02-20T00:41:44;99683.05;;;11.93;51.83
37066;BME280;22981;43.080;25.550;2023-02-20T00:44:11;99679.46;;;11.90;51.87
37066;BME280;22981;43.080;25.550;2023-02-20T00:46:38;99682.91;;;11.88;51.93
37066;BME280;22981;43.080;25.550;2023-02-20T00:49:05;99679.31;;;11.85;52.00
37066;BME280;22981;43.080;25.550;2023-02-20T00:51:31;99678.41;;;11.82;52.05
37066;BME280;22981;43.080;25.550;2023-02-20T00:54:00;99685.31;;;11.81;52.10
37066;BME280;22981;43.080;25.550;2023-02-20T00:56:27;99683.07;;;11.77;52.15
37066;BME280;22981;43.080;25.550;2023-02-20T00:58:54;99688.61;;;11.73;52.23
37066;BME280;22981;43.080;25.550;2023-02-20T01:01:20;99694.99;;;11.72;52.26
37066;BME280;22981;43.080;25.550;2023-02-20T01:16:46;99689.56;;;11.61;52.55
37066;BME280;22981;43.080;25.550;2023-02-20T01:19:16;99695.13;;;11.59;52.58
37066;BME280;22981;43.080;25.550;2023-02-20T01:21:43;99697.51;;;11.58;52.63
37066;BME280;22981;43.080;25.550;2023-02-20T01:24:09;99694.02;;;11.58;52.64
37066;BME280;22981;43.080;25.550;2023-02-20T01:26:36;99694.53;;;11.57;52.65
37066;BME280;22981;43.080;25.550;2023-02-20T01:29:03;99684.83;;;11.56;52.67
37066;BME280;22981;43.080;25.550;2023-02-20T01:31:30;99683.72;;;11.54;52.74
37066;BME280;22981;43.080;25.550;2023-02-20T01:33:57;99685.48;;;11.51;52.80
37066;BME280;22981;43.080;25.550;2023-02-20T01:36:24;99687.59;;;11.49;52.83
37066;BME280;22981;43.080;25.550;2023-02-20T01:38:52;99683.80;;;11.48;52.93
37066;BME280;22981;43.080;25.550;2023-02-20T01:41:19;99681.93;;;11.48;52.96
37066;BME280;22981;43.080;25.550;2023-02-20T01:43:46;99689.65;;;11.47;52.99
37066;BME280;22981;43.080;25.550;2023-02-20T01:49:00;99679.06;;;11.43;53.07
37066;BME280;22981;43.080;25.550;2023-02-20T01:51:26;99681.68;;;11.41;53.14
37066;BME280;22981;43.080;25.550;2023-02-20T01:53:53;99673.34;;;11.40;53.16
37066;BME280;22981;43.080;25.550;2023-02-20T01:56:20;99672.20;;;11.38;53.24
37066;BME280;22981;43.080;25.550;2023-02-20T01:58:47;99673.55;;;11.38;53.26
37066;BME280;22981;43.080;25.550;2023-02-20T02:01:15;99679.14;;;11.37;53.28
37066;BME280;22981;43.080;25.550;2023-02-20T02:03:43;99683.06;;;11.34;53.37
37066;BME280;22981;43.080;25.550;2023-02-20T02:06:11;99679.56;;;11.34;53.40
37066;BME280;22981;43.080;25.550;2023-02-20T02:08:38;99669.66;;;11.34;53.37
37066;BME280;22981;43.080;25.550;2023-02-20T02:11:09;99665.34;;;11.33;53.37
37066;BME280;22981;43.080;25.550;2023-02-20T02:13:37;99677.64;;;11.32;53.42
37066;BME280;22981;43.080;25.550;2023-02-20T02:16:07;99670.33;;;11.29;53.41
37066;BME280;22981;43.080;25.550;2023-02-20T02:18:34;99661.98;;;11.28;53.45
37066;BME280;22981;43.080;25.550;2023-02-20T02:36:47;99655.17;;;11.17;53.28
37066;BME280;22981;43.080;25.550;2023-02-20T02:42:13;99664.35;;;11.18;53.15
37066;BME280;22981;43.080;25.550;2023-02-20T02:45:42;99661.34;;;11.17;53.11
37066;BME280;22981;43.080;25.550;2023-02-20T02:47:17;99663.02;;;11.18;53.11
37066;BME280;22981;43.080;25.550;2023-02-20T02:52:18;99660.01;;;11.17;53.18
37066;BME280;22981;43.080;25.550;2023-02-20T02:54:47;99660.23;;;11.16;53.29
37066;BME280;22981;43.080;25.550;2023-02-20T02:57:17;99662.10;;;11.15;53.32
37066;BME280;22981;43.080;25.550;2023-02-20T02:59:44;99672.81;;;11.15;53.37
37066;BME280;22981;43.080;25.550;2023-02-20T03:02:12;99679.00;;;11.16;53.42
37066;BME280;22981;43.080;25.550;2023-02-20T03:04:40;99689.13;;;11.14;53.42
37066;BME280;22981;43.080;25.550;2023-02-20T03:07:09;99694.16;;;11.13;53.46
37066;BME280;22981;43.080;25.550;2023-02-20T03:09:42;99695.20;;;11.12;53.48
37066;BME280;22981;43.080;25.550;2023-02-20T03:12:04;99679.55;;;11.09;53.43
37066;BME280;22981;43.080;25.550;2023-02-20T03:14:37;99680.30;;;11.07;53.40
37066;BME280;22981;43.080;25.550;2023-02-20T03:17:34;99681.03;;;11.04;53.37
37066;BME280;22981;43.080;25.550;2023-02-20T03:19:56;99676.42;;;11.02;53.38
37066;BME280;22981;43.080;25.550;2023-02-20T03:22:30;99680.14;;;11.01;53.35
37066;BME280;22981;43.080;25.550;2023-02-20T03:24:59;99684.59;;;10.98;53.37
37066;BME280;22981;43.080;25.550;2023-02-20T03:27:31;99686.16;;;10.97;53.36
37066;BME280;22981;43.080;25.550;2023-02-20T03:29:59;99679.66;;;10.95;53.37
37066;BME280;22981;43.080;25.550;2023-02-20T03:32:26;99688.73;;;10.94;53.37
37066;BME280;22981;43.080;25.550;2023-02-20T03:35:12;99690.30;;;10.93;53.40
37066;BME280;22981;43.080;25.550;2023-02-20T03:37:59;99691.77;;;10.89;53.42
37066;BME280;22981;43.080;25.550;2023-02-20T03:40:44;99693.00;;;10.86;53.45
37066;BME280;22981;43.080;25.550;2023-02-20T03:43:28;99697.45;;;10.83;53.51
37066;BME280;22981;43.080;25.550;2023-02-20T03:45:59;99698.91;;;10.79;53.59
37066;BME280;22981;43.080;25.550;2023-02-20T03:48:39;99691.33;;;10.76;53.66
37066;BME280;22981;43.080;25.550;2023-02-20T03:51:05;99702.69;;;10.71;53.72
37066;BME280;22981;43.080;25.550;2023-02-20T03:53:32;99699.09;;;10.68;53.81
37066;BME280;22981;43.080;25.550;2023-02-20T03:56:00;99698.17;;;10.65;53.87
37066;BME280;22981;43.080;25.550;2023-02-20T03:58:27;99710.15;;;10.63;53.94
37066;BME280;22981;43.080;25.550;2023-02-20T04:00:55;99716.73;;;10.60;54.11
37066;BME280;22981;43.080;25.550;2023-02-20T04:03:24;99719.31;;;10.58;54.22
37066;BME280;22981;43.080;25.550;2023-02-20T04:05:52;99728.83;;;10.53;54.29
37066;BME280;22981;43.080;25.550;2023-02-20T04:08:25;99725.53;;;10.51;54.34
37066;BME280;22981;43.080;25.550;2023-02-20T04:10:50;99733.78;;;10.50;54.40
37066;BME280;22981;43.080;25.550;2023-02-20T04:13:16;99727.28;;;10.48;54.46
37066;BME280;22981;43.080;25.550;2023-02-20T04:15:43;99739.45;;;10.44;54.58
37066;BME280;22981;43.080;25.550;2023-02-20T04:18:15;99739.08;;;10.41;54.61
37066;BME280;22981;43.080;25.550;2023-02-20T04:20:44;99750.49;;;10.39;54.61
37066;BME280;22981;43.080;25.550;2023-02-20T04:23:20;99754.41;;;10.36;54.66
37066;BME280;22981;43.080;25.550;2023-02-20T04:28:13;99771.94;;;10.32;54.67
37066;BME280;22981;43.080;25.550;2023-02-20T04:30:40;99769.16;;;10.30;54.69
37066;BME280;22981;43.080;25.550;2023-02-20T04:33:12;99796.33;;;10.26;54.71
37066;BME280;22981;43.080;25.550;2023-02-20T04:35:36;99799.52;;;10.26;54.69
37066;BME280;22981;43.080;25.550;2023-02-20T04:38:02;99800.34;;;10.26;54.65
37066;BME280;22981;43.080;25.550;2023-02-20T04:40:29;99806.73;;;10.25;54.68
37066;BME280;22981;43.080;25.550;2023-02-20T04:42:56;99811.27;;;10.25;54.71
37066;BME280;22981;43.080;25.550;2023-02-20T04:45:23;99808.45;;;10.22;54.80
37066;BME280;22981;43.080;25.550;2023-02-20T04:47:50;99813.72;;;10.20;54.92
37066;BME280;22981;43.080;25.550;2023-02-20T04:50:29;99810.93;;;10.17;54.93
37066;BME280;22981;43.080;25.550;2023-02-20T04:52:57;99823.19;;;10.16;54.97
37066;BME280;22981;43.080;25.550;2023-02-20T04:55:25;99824.41;;;10.13;55.03
37066;BME280;22981;43.080;25.550;2023-02-20T04:57:52;99830.80;;;10.12;55.03
37066;BME280;22981;43.080;25.550;2023-02-20T05:00:20;99836.26;;;10.08;55.07
37066;BME280;22981;43.080;25.550;2023-02-20T05:02:47;99849.52;;;10.06;55.13
37066;BME280;22981;43.080;25.550;2023-02-20T05:07:48;99851.08;;;10.04;55.03
37066;BME280;22981;43.080;25.550;2023-02-20T05:10:18;99860.14;;;10.03;54.94
37066;BME280;22981;43.080;25.550;2023-02-20T05:12:45;99869.17;;;10.02;54.82
37066;BME280;22981;43.080;25.550;2023-02-20T05:15:12;99885.03;;;10.03;54.78
37066;BME280;22981;43.080;25.550;2023-02-20T05:17:39;99888.22;;;10.03;54.71
37066;BME280;22981;43.080;25.550;2023-02-20T05:20:06;99887.41;;;10.02;54.69
37066;BME280;22981;43.080;25.550;2023-02-20T05:22:33;99894.91;;;10.03;54.65
37066;BME280;22981;43.080;25.550;2023-02-20T05:25:00;99905.28;;;10.02;54.65
37066;BME280;22981;43.080;25.550;2023-02-20T05:27:27;99915.67;;;10.01;54.59
37066;BME280;22981;43.080;25.550;2023-02-20T05:29:55;99920.42;;;9.99;54.58
37066;BME280;22981;43.080;25.550;2023-02-20T05:32:23;99927.29;;;9.97;54.62
37066;BME280;22981;43.080;25.550;2023-02-20T05:34:50;99922.98;;;9.96;54.64
37066;BME280;22981;43.080;25.550;2023-02-20T05:37:17;99934.19;;;9.96;54.68
37066;BME280;22981;43.080;25.550;2023-02-20T05:39:45;99941.70;;;9.96;54.75
37066;BME280;22981;43.080;25.550;2023-02-20T05:42:12;99945.41;;;9.95;54.81
37066;BME280;22981;43.080;25.550;2023-02-20T05:44:39;99946.23;;;9.96;54.85
37066;BME280;22981;43.080;25.550;2023-02-20T05:47:06;99961.58;;;9.98;54.88
37066;BME280;22981;43.080;25.550;2023-02-20T05:49:37;99961.66;;;10.00;54.91
37066;BME280;22981;43.080;25.550;2023-02-20T05:52:04;99969.29;;;10.03;54.91
37066;BME280;22981;43.080;25.550;2023-02-20T05:54:33;99966.92;;;10.04;54.87
37066;BME280;22981;43.080;25.550;2023-02-20T05:57:00;99970.53;;;10.08;54.78
37066;BME280;22981;43.080;25.550;2023-02-20T05:59:26;99978.03;;;10.15;54.72
37066;BME280;22981;43.080;25.550;2023-02-20T06:01:57;99988.97;;;10.20;54.61
37066;BME280;22981;43.080;25.550;2023-02-20T06:04:24;99999.39;;;10.25;54.51
37066;BME280;22981;43.080;25.550;2023-02-20T06:06:51;100001.76;;;10.31;54.35
37066;BME280;22981;43.080;25.550;2023-02-20T06:09:17;100008.98;;;10.37;54.14
37066;BME280;22981;43.080;25.550;2023-02-20T06:11:48;100019.16;;;10.44;53.96
37066;BME280;22981;43.080;25.550;2023-02-20T06:14:15;100025.14;;;10.53;53.59
37066;BME280;22981;43.080;25.550;2023-02-20T06:16:43;100006.30;;;10.57;53.22
37066;BME280;22981;43.080;25.550;2023-02-20T06:19:10;100022.26;;;10.61;52.73
37066;BME280;22981;43.080;25.550;2023-02-20T06:21:37;100035.36;;;10.67;52.04
37066;BME280;22981;43.080;25.550;2023-02-20T06:24:05;100036.27;;;10.70;51.36
37066;BME280;22981;43.080;25.550;2023-02-20T06:26:37;100039.17;;;10.75;51.07
37066;BME280;22981;43.080;25.550;2023-02-20T06:29:01;100040.38;;;10.86;50.90
37066;BME280;22981;43.080;25.550;2023-02-20T06:31:27;100034.52;;;10.93;50.38
37066;BME280;22981;43.080;25.550;2023-02-20T06:33:54;100035.14;;;10.88;49.91
37066;BME280;22981;43.080;25.550;2023-02-20T06:36:22;100049.75;;;10.79;50.22
37066;BME280;22981;43.080;25.550;2023-02-20T06:38:49;100040.69;;;10.87;50.30
37066;BME280;22981;43.080;25.550;2023-02-20T06:41:16;100050.89;;;10.94;50.08
37066;BME280;22981;43.080;25.550;2023-02-20T06:43:43;100047.37;;;11.00;50.20
37066;BME280;22981;43.080;25.550;2023-02-20T06:46:10;100048.19;;;11.07;50.17
37066;BME280;22981;43.080;25.550;2023-02-20T06:48:47;100039.20;;;11.17;50.20
37066;BME280;22981;43.080;25.550;2023-02-20T06:51:18;100042.77;;;11.34;49.89
37066;BME280;22981;43.080;25.550;2023-02-20T06:53:45;100054.86;;;11.27;49.59
37066;BME280;22981;43.080;25.550;2023-02-20T06:56:16;100066.48;;;11.30;49.49
37066;BME280;22981;43.080;25.550;2023-02-20T06:58:48;100058.22;;;11.38;49.05
37066;BME280;22981;43.080;25.550;2023-02-20T07:01:15;100057.52;;;11.34;49.01
37066;BME280;22981;43.080;25.550;2023-02-20T07:03:42;100046.00;;;11.26;49.15
37066;BME280;22981;43.080;25.550;2023-02-20T07:06:11;100056.84;;;11.22;49.18
37066;BME280;22981;43.080;25.550;2023-02-20T07:08:37;100061.98;;;11.24;49.00
37066;BME280;22981;43.080;25.550;2023-02-20T07:11:04;100061.45;;;11.31;48.77
37066;BME280;22981;43.080;25.550;2023-02-20T07:13:31;100066.78;;;11.44;48.61
37066;BME280;22981;43.080;25.550;2023-02-20T07:15:58;100071.52;;;11.42;48.60
37066;BME280;22981;43.080;25.550;2023-02-20T07:18:25;100073.81;;;11.32;48.71
37066;BME280;22981;43.080;25.550;2023-02-20T07:20:56;100086.53;;;11.14;48.53
37066;BME280;22981;43.080;25.550;2023-02-20T07:23:20;100090.24;;;11.07;48.95
37066;BME280;22981;43.080;25.550;2023-02-20T07:25:47;100089.81;;;11.23;48.70
37066;BME280;22981;43.080;25.550;2023-02-20T07:28:15;100089.57;;;11.44;48.69
37066;BME280;22981;43.080;25.550;2023-02-20T07:30:43;100102.72;;;11.66;48.20
37066;BME280;22981;43.080;25.550;2023-02-20T07:33:11;100102.97;;;11.80;47.91
37066;BME280;22981;43.080;25.550;2023-02-20T07:35:37;100103.29;;;11.88;47.42
37066;BME280;22981;43.080;25.550;2023-02-20T07:38:04;100104.91;;;11.95;47.63
37066;BME280;22981;43.080;25.550;2023-02-20T07:40:31;100113.84;;;12.05;47.49
37066;BME280;22981;43.080;25.550;2023-02-20T07:42:58;100117.41;;;12.15;47.11
37066;BME280;22981;43.080;25.550;2023-02-20T07:45:25;100113.70;;;12.32;47.12
37066;BME280;22981;43.080;25.550;2023-02-20T07:47:52;100107.70;;;12.52;46.74
37066;BME280;22981;43.080;25.550;2023-02-20T07:50:18;100126.13;;;12.64;46.28
37066;BME280;22981;43.080;25.550;2023-02-20T07:52:45;100118.69;;;12.75;46.13
37066;BME280;22981;43.080;25.550;2023-02-20T07:55:13;100109.55;;;12.83;45.41
37066;BME280;22981;43.080;25.550;2023-02-20T07:57:40;100115.97;;;12.82;45.09
37066;BME280;22981;43.080;25.550;2023-02-20T08:00:07;100095.06;;;12.84;44.97
37066;BME280;22981;43.080;25.550;2023-02-20T08:02:34;100111.14;;;12.91;44.98
37066;BME280;22981;43.080;25.550;2023-02-20T08:05:00;100106.98;;;12.95;44.68
37066;BME280;22981;43.080;25.550;2023-02-20T08:07:27;100093.03;;;13.04;44.49
37066;BME280;22981;43.080;25.550;2023-02-20T08:09:54;100102.02;;;13.08;44.19
37066;BME280;22981;43.080;25.550;2023-02-20T08:12:21;100098.41;;;13.04;44.16
37066;BME280;22981;43.080;25.550;2023-02-20T08:14:50;100098.55;;;13.00;43.95
37066;BME280;22981;43.080;25.550;2023-02-20T08:17:17;100087.46;;;13.06;43.78
37066;BME280;22981;43.080;25.550;2023-02-20T08:19:44;100114.03;;;13.14;43.81
37066;BME280;22981;43.080;25.550;2023-02-20T08:22:11;100104.18;;;13.24;43.73
37066;BME280;22981;43.080;25.550;2023-02-20T08:24:38;100105.00;;;13.34;43.42
37066;BME280;22981;43.080;25.550;2023-02-20T08:27:05;100108.77;;;13.51;43.53
37066;BME280;22981;43.080;25.550;2023-02-20T08:29:31;100111.45;;;13.69;43.46
37066;BME280;22981;43.080;25.550;2023-02-20T08:31:58;100120.95;;;13.53;43.35
37066;BME280;22981;43.080;25.550;2023-02-20T08:34:25;100115.47;;;13.17;43.44
37066;BME280;22981;43.080;25.550;2023-02-20T08:36:52;100128.80;;;13.05;43.63
37066;BME280;22981;43.080;25.550;2023-02-20T08:39:19;100138.12;;;12.93;43.68
37066;BME280;22981;43.080;25.550;2023-02-20T08:41:46;100139.53;;;12.80;44.08
37066;BME280;22981;43.080;25.550;2023-02-20T08:44:13;100128.50;;;13.04;44.08
37066;BME280;22981;43.080;25.550;2023-02-20T08:46:50;100136.03;;;13.45;43.90
37066;BME280;22981;43.080;25.550;2023-02-20T08:49:14;100134.17;;;13.83;43.31
37066;BME280;22981;43.080;25.550;2023-02-20T08:51:52;100142.16;;;14.08;42.85
37066;BME280;22981;43.080;25.550;2023-02-20T08:54:17;100135.42;;;14.17;42.79
37066;BME280;22981;43.080;25.550;2023-02-20T08:56:44;100129.74;;;14.16;42.81
37066;BME280;22981;43.080;25.550;2023-02-20T08:59:13;100137.30;;;14.16;42.48
37066;BME280;22981;43.080;25.550;2023-02-20T09:01:44;100131.39;;;14.08;42.62
37066;BME280;22981;43.080;25.550;2023-02-20T09:04:13;100130.83;;;13.96;42.80
37066;BME280;22981;43.080;25.550;2023-02-20T09:06:43;100127.47;;;13.92;42.77
37066;BME280;22981;43.080;25.550;2023-02-20T09:09:14;100138.73;;;13.82;42.82
37066;BME280;22981;43.080;25.550;2023-02-20T09:11:45;100138.13;;;13.62;42.75
37066;BME280;22981;43.080;25.550;2023-02-20T09:14:14;100137.58;;;13.44;42.86
37066;BME280;22981;43.080;25.550;2023-02-20T09:16:45;100132.56;;;13.29;43.03
37066;BME280;22981;43.080;25.550;2023-02-20T09:19:14;100135.54;;;13.14;43.00
37066;BME280;22981;43.080;25.550;2023-02-20T09:21:45;100124.47;;;13.04;43.25
37066;BME280;22981;43.080;25.550;2023-02-20T09:24:14;100125.45;;;13.10;43.38
37066;BME280;22981;43.080;25.550;2023-02-20T09:26:41;100134.72;;;13.14;43.09
37066;BME280;22981;43.080;25.550;2023-02-20T09:29:07;100137.80;;;13.17;43.17
37066;BME280;22981;43.080;25.550;2023-02-20T09:31:34;100144.54;;;13.42;43.11
37066;BME280;22981;43.080;25.550;2023-02-20T09:34:01;100142.72;;;13.80;42.89
37066;BME280;22981;43.080;25.550;2023-02-20T09:36:29;100149.72;;;14.26;42.29
37066;BME280;22981;43.080;25.550;2023-02-20T09:38:56;100159.10;;;14.45;41.15
37066;BME280;22981;43.080;25.550;2023-02-20T09:41:44;100166.00;;;14.50;40.91
37066;BME280;22981;43.080;25.550;2023-02-20T09:44:24;100166.02;;;14.32;41.03
37066;BME280;22981;43.080;25.550;2023-02-20T09:46:49;100168.69;;;14.50;41.17
37066;BME280;22981;43.080;25.550;2023-02-20T09:49:19;100178.39;;;14.60;40.84
37066;BME280;22981;43.080;25.550;2023-02-20T09:52:05;100178.93;;;14.41;40.62
37066;BME280;22981;43.080;25.550;2023-02-20T09:54:21;100172.52;;;14.24;40.65
37066;BME280;22981;43.080;25.550;2023-02-20T09:56:49;100173.05;;;14.23;40.89
37066;BME280;22981;43.080;25.550;2023-02-20T09:59:21;100168.81;;;14.46;40.64
37066;BME280;22981;43.080;25.550;2023-02-20T10:01:52;100182.06;;;14.66;40.44
37066;BME280;22981;43.080;25.550;2023-02-20T10:04:20;100181.09;;;14.81;40.07
37066;BME280;22981;43.080;25.550;2023-02-20T10:06:48;100179.00;;;14.62;40.27
37066;BME280;22981;43.080;25.550;2023-02-20T10:09:16;100182.35;;;14.67;40.26
37066;BME280;22981;43.080;25.550;2023-02-20T10:14:26;100171.99;;;14.94;39.72
37066;BME280;22981;43.080;25.550;2023-02-20T10:16:54;100173.98;;;15.08;39.44
37066;BME280;22981;43.080;25.550;2023-02-20T10:19:22;100173.16;;;15.19;39.21
37066;BME280;22981;43.080;25.550;2023-02-20T10:22:00;100165.84;;;15.40;38.92
37066;BME280;22981;43.080;25.550;2023-02-20T10:24:25;100163.09;;;15.49;38.90
37066;BME280;22981;43.080;25.550;2023-02-20T10:26:52;100163.88;;;15.71;38.80
37066;BME280;22981;43.080;25.550;2023-02-20T10:29:23;100150.39;;;15.97;38.70
37066;BME280;22981;43.080;25.550;2023-02-20T10:31:52;100154.11;;;16.19;38.43
37066;BME280;22981;43.080;25.550;2023-02-20T10:36:56;100150.92;;;15.96;38.14
37066;BME280;22981;43.080;25.550;2023-02-20T10:39:22;100155.31;;;15.50;38.55
37066;BME280;22981;43.080;25.550;2023-02-20T10:41:51;100162.91;;;15.18;38.98
37066;BME280;22981;43.080;25.550;2023-02-20T10:44:21;100147.39;;;14.90;39.32
37066;BME280;22981;43.080;25.550;2023-02-20T10:46:58;100153.08;;;14.70;39.59
37066;BME280;22981;43.080;25.550;2023-02-20T10:49:33;100157.84;;;14.47;40.05
37066;BME280;22981;43.080;25.550;2023-02-20T10:51:59;100152.89;;;14.44;40.09
37066;BME280;22981;43.080;25.550;2023-02-20T10:54:33;100151.20;;;14.32;40.08
37066;BME280;22981;43.080;25.550;2023-02-20T10:59:34;100143.23;;;13.88;40.44
37066;BME280;22981;43.080;25.550;2023-02-20T11:02:01;100142.19;;;13.89;40.32
37066;BME280;22981;43.080;25.550;2023-02-20T11:04:34;100140.69;;;13.93;40.53
37066;BME280;22981;43.080;25.550;2023-02-20T11:09:28;100132.61;;;14.51;40.09
37066;BME280;22981;43.080;25.550;2023-02-20T11:11:54;100141.77;;;14.71;39.63
37066;BME280;22981;43.080;25.550;2023-02-20T11:14:22;100136.94;;;14.94;39.37
37066;BME280;22981;43.080;25.550;2023-02-20T11:17:00;100139.41;;;15.16;38.88
37066;BME280;22981;43.080;25.550;2023-02-20T11:20:01;100138.17;;;15.21;38.58
37066;BME280;22981;43.080;25.550;2023-02-20T11:22:01;100139.81;;;15.34;38.32
37066;BME280;22981;43.080;25.550;2023-02-20T11:24:33;100131.87;;;15.53;38.26
37066;BME280;22981;43.080;25.550;2023-02-20T11:27:01;100130.84;;;15.78;37.92
37066;BME280;22981;43.080;25.550;2023-02-20T11:29:39;100129.47;;;15.90;37.43
37066;BME280;22981;43.080;25.550;2023-02-20T11:32:17;100127.70;;;15.84;37.24
37066;BME280;22981;43.080;25.550;2023-02-20T11:34:43;100125.78;;;15.82;36.91
37066;BME280;22981;43.080;25.550;2023-02-20T11:37:10;100127.07;;;15.79;37.24
37066;BME280;22981;43.080;25.550;2023-02-20T11:39:37;100125.87;;;15.98;37.12
37066;BME280;22981;43.080;25.550;2023-02-20T11:42:06;100133.88;;;16.22;36.92
37066;BME280;22981;43.080;25.550;2023-02-20T11:44:33;100141.61;;;16.30;36.95
37066;BME280;22981;43.080;25.550;2023-02-20T11:47:10;100140.98;;;16.40;36.52
37066;BME280;22981;43.080;25.550;2023-02-20T11:49:37;100136.60;;;16.50;36.29
37066;BME280;22981;43.080;25.550;2023-02-20T11:52:21;100129.17;;;16.58;36.03
37066;BME280;22981;43.080;25.550;2023-02-20T11:54:34;100136.05;;;16.65;36.02
37066;BME280;22981;43.080;25.550;2023-02-20T11:57:05;100135.54;;;16.80;36.09
37066;BME280;22981;43.080;25.550;2023-02-20T11:59:34;100136.63;;;16.96;35.88
37066;BME280;22981;43.080;25.550;2023-02-20T12:02:19;100123.81;;;16.91;35.35
37066;BME280;22981;43.080;25.550;2023-02-20T12:04:41;100117.84;;;16.89;35.70
37066;BME280;22981;43.080;25.550;2023-02-20T12:09:49;100099.11;;;16.85;35.71
37066;BME280;22981;43.080;25.550;2023-02-20T12:12:16;100123.56;;;16.47;36.06
37066;BME280;22981;43.080;25.550;2023-02-20T12:14:45;100120.09;;;16.07;36.26
37066;BME280;22981;43.080;25.550;2023-02-20T12:17:26;100119.48;;;15.90;36.38
37066;BME280;22981;43.080;25.550;2023-02-20T12:22:17;100117.13;;;15.94;36.40
37066;BME280;22981;43.080;25.550;2023-02-20T12:24:46;100121.40;;;15.66;36.71
37066;BME280;22981;43.080;25.550;2023-02-20T12:29:48;100126.91;;;15.13;37.21
37066;BME280;22981;43.080;25.550;2023-02-20T12:32:21;100128.66;;;15.19;37.26
37066;BME280;22981;43.080;25.550;2023-02-20T12:40:01;100120.69;;;14.59;37.46
37066;BME280;22981;43.080;25.550;2023-02-20T12:42:31;100111.70;;;14.65;37.22
37066;BME280;22981;43.080;25.550;2023-02-20T12:45:15;100113.98;;;14.91;37.13
37066;BME280;22981;43.080;25.550;2023-02-20T12:47:42;100112.89;;;15.13;36.78
37066;BME280;22981;43.080;25.550;2023-02-20T12:50:12;100108.02;;;15.36;36.35
37066;BME280;22981;43.080;25.550;2023-02-20T12:57:58;100099.17;;;15.88;35.71
37066;BME280;22981;43.080;25.550;2023-02-20T13:03:05;100117.92;;;16.20;35.49
37066;BME280;22981;43.080;25.550;2023-02-20T13:05:29;100110.34;;;16.34;35.02
37066;BME280;22981;43.080;25.550;2023-02-20T13:07:57;100111.89;;;16.30;34.94
37066;BME280;22981;43.080;25.550;2023-02-20T13:10:27;100109.44;;;16.28;35.08
37066;BME280;22981;43.080;25.550;2023-02-20T13:12:54;100111.70;;;16.34;34.76
37066;BME280;22981;43.080;25.550;2023-02-20T13:18:04;100119.52;;;16.33;34.72
37066;BME280;22981;43.080;25.550;2023-02-20T13:20:40;100097.22;;;16.26;34.71
37066;BME280;22981;43.080;25.550;2023-02-20T13:23:05;100109.66;;;16.27;34.55
37066;BME280;22981;43.080;25.550;2023-02-20T13:25:35;100106.39;;;16.25;34.42
37066;BME280;22981;43.080;25.550;2023-02-20T13:30:44;100100.50;;;16.14;34.15
37066;BME280;22981;43.080;25.550;2023-02-20T13:33:17;100100.66;;;16.07;34.44
37066;BME280;22981;43.080;25.550;2023-02-20T13:38:13;100108.98;;;16.06;34.43
37066;BME280;22981;43.080;25.550;2023-02-20T13:43:34;100103.77;;;16.01;34.00
37066;BME280;22981;43.080;25.550;2023-02-20T13:48:42;100104.30;;;15.75;34.13
37066;BME280;22981;43.080;25.550;2023-02-20T14:02:18;100115.00;;;15.23;34.52
37066;BME280;22981;43.080;25.550;2023-02-20T14:04:55;100117.47;;;15.13;34.73
37066;BME280;22981;43.080;25.550;2023-02-20T14:07:28;100124.27;;;15.03;34.70
37066;BME280;22981;43.080;25.550;2023-02-20T14:09:59;100111.41;;;14.96;34.87
37066;BME280;22981;43.080;25.550;2023-02-20T14:12:26;100113.50;;;14.94;34.90
37066;BME280;22981;43.080;25.550;2023-02-20T14:14:53;100109.58;;;14.88;34.95
37066;BME280;22981;43.080;25.550;2023-02-20T14:17:21;100107.05;;;14.84;35.06
37066;BME280;22981;43.080;25.550;2023-02-20T14:19:54;100108.80;;;14.78;35.06
37066;BME280;22981;43.080;25.550;2023-02-20T14:27:32;100105.83;;;14.56;35.04
37066;BME280;22981;43.080;25.550;2023-02-20T14:30:03;100089.30;;;14.52;35.24
37066;BME280;22981;43.080;25.550;2023-02-20T14:32:30;100101.47;;;14.46;35.23
37066;BME280;22981;43.080;25.550;2023-02-20T14:39:59;100109.16;;;14.21;34.79